Highworth, United Kingdom
Current Conditions -  °F | °C
As of 3:58 PM on Wednesday 28 Jan 2015 (Local Time) from EGVA Reporting Station
Few Clouds Few Clouds  
Wind Chill: 33°   Ceiling: Unl
Heat Index: 42°   Visibility: 6mi
Dew Point: 24°   Wind: 22mph
Humidity: 49%   Direction: 280°W
Pressure: 29.61"   Gusts: 31mph
Location:  51.63°N, 1.71°W
Report Text: EGVA 281558Z AUTO 28019G27KT 9999 FEW055 06/M04 A2961 RMK AO2 PK WND 29033/17 RAE1518 SLP033 P0000 T00551044 $
Loading
Personal Weather Stations






























Interactive Weather Map New forecast layout! Learn more

10-Day Weather Forecast

Advertisements
Track Severe Weather on mobile